sensor_id;sensor_type;location;lat;lon;timestamp;P1;durP1;ratioP1;P2;durP2;ratioP2
19002;SDS011;9634;51.040;13.794;2022-12-16T00:02:14;62.67;;;26.43;;
19002;SDS011;9634;51.040;13.794;2022-12-16T00:07:16;62.90;;;27.20;;
19002;SDS011;9634;51.040;13.794;2022-12-16T00:12:18;66.40;;;27.67;;
19002;SDS011;9634;51.040;13.794;2022-12-16T00:17:22;67.17;;;27.17;;
19002;SDS011;9634;51.040;13.794;2022-12-16T00:22:25;71.70;;;29.10;;
19002;SDS011;9634;51.040;13.794;2022-12-16T00:27:27;67.63;;;27.63;;
19002;SDS011;9634;51.040;13.794;2022-12-16T00:32:30;66.53;;;25.97;;
19002;SDS011;9634;51.040;13.794;2022-12-16T00:37:33;69.90;;;27.87;;
19002;SDS011;9634;51.040;13.794;2022-12-16T00:42:35;65.87;;;27.37;;
19002;SDS011;9634;51.040;13.794;2022-12-16T00:47:40;69.40;;;28.10;;
19002;SDS011;9634;51.040;13.794;2022-12-16T00:52:43;68.47;;;27.73;;
19002;SDS011;9634;51.040;13.794;2022-12-16T00:57:45;73.07;;;27.97;;
19002;SDS011;9634;51.040;13.794;2022-12-16T01:02:49;77.53;;;31.50;;
19002;SDS011;9634;51.040;13.794;2022-12-16T01:07:52;70.10;;;28.50;;
19002;SDS011;9634;51.040;13.794;2022-12-16T01:12:55;68.23;;;28.00;;
19002;SDS011;9634;51.040;13.794;2022-12-16T01:17:58;66.60;;;28.23;;
19002;SDS011;9634;51.040;13.794;2022-12-16T01:23:01;67.37;;;27.27;;
19002;SDS011;9634;51.040;13.794;2022-12-16T01:28:03;71.50;;;28.23;;
19002;SDS011;9634;51.040;13.794;2022-12-16T01:33:07;68.33;;;28.53;;
19002;SDS011;9634;51.040;13.794;2022-12-16T01:38:10;67.23;;;29.13;;
19002;SDS011;9634;51.040;13.794;2022-12-16T01:43:13;69.13;;;27.43;;
19002;SDS011;9634;51.040;13.794;2022-12-16T01:48:19;65.27;;;27.87;;
19002;SDS011;9634;51.040;13.794;2022-12-16T01:53:28;72.13;;;28.53;;
19002;SDS011;9634;51.040;13.794;2022-12-16T01:58:32;70.67;;;29.37;;
19002;SDS011;9634;51.040;13.794;2022-12-16T02:03:38;74.43;;;29.70;;
19002;SDS011;9634;51.040;13.794;2022-12-16T02:08:43;71.73;;;29.33;;
19002;SDS011;9634;51.040;13.794;2022-12-16T02:13:50;66.90;;;26.97;;
19002;SDS011;9634;51.040;13.794;2022-12-16T02:19:11;71.27;;;30.27;;
19002;SDS011;9634;51.040;13.794;2022-12-16T02:36:19;70.93;;;29.60;;
19002;SDS011;9634;51.040;13.794;2022-12-16T02:41:30;67.90;;;27.43;;
19002;SDS011;9634;51.040;13.794;2022-12-16T02:46:46;64.47;;;27.37;;
19002;SDS011;9634;51.040;13.794;2022-12-16T02:51:55;70.70;;;28.40;;
19002;SDS011;9634;51.040;13.794;2022-12-16T02:57:01;70.43;;;27.83;;
19002;SDS011;9634;51.040;13.794;2022-12-16T03:02:14;63.13;;;26.83;;
19002;SDS011;9634;51.040;13.794;2022-12-16T03:07:24;65.53;;;27.30;;
19002;SDS011;9634;51.040;13.794;2022-12-16T03:12:29;71.93;;;28.07;;
19002;SDS011;9634;51.040;13.794;2022-12-16T03:17:34;69.97;;;28.43;;
19002;SDS011;9634;51.040;13.794;2022-12-16T03:22:39;74.50;;;28.93;;
19002;SDS011;9634;51.040;13.794;2022-12-16T03:27:45;69.57;;;28.03;;
19002;SDS011;9634;51.040;13.794;2022-12-16T03:32:56;69.47;;;27.30;;
19002;SDS011;9634;51.040;13.794;2022-12-16T03:38:03;61.90;;;26.97;;
19002;SDS011;9634;51.040;13.794;2022-12-16T03:43:09;65.53;;;26.30;;
19002;SDS011;9634;51.040;13.794;2022-12-16T03:48:14;62.63;;;24.23;;
19002;SDS011;9634;51.040;13.794;2022-12-16T03:53:21;60.47;;;26.87;;
19002;SDS011;9634;51.040;13.794;2022-12-16T03:58:25;58.43;;;25.00;;
19002;SDS011;9634;51.040;13.794;2022-12-16T04:03:27;57.83;;;24.00;;
19002;SDS011;9634;51.040;13.794;2022-12-16T04:08:31;60.43;;;24.23;;
19002;SDS011;9634;51.040;13.794;2022-12-16T04:13:33;55.47;;;23.00;;
19002;SDS011;9634;51.040;13.794;2022-12-16T04:18:53;60.03;;;23.87;;
19002;SDS011;9634;51.040;13.794;2022-12-16T04:24:14;57.00;;;24.17;;
19002;SDS011;9634;51.040;13.794;2022-12-16T04:29:23;58.10;;;23.47;;
19002;SDS011;9634;51.040;13.794;2022-12-16T04:34:25;56.53;;;23.37;;
19002;SDS011;9634;51.040;13.794;2022-12-16T04:39:29;60.03;;;23.73;;
19002;SDS011;9634;51.040;13.794;2022-12-16T04:44:49;52.77;;;23.33;;
19002;SDS011;9634;51.040;13.794;2022-12-16T04:50:08;52.07;;;21.57;;
19002;SDS011;9634;51.040;13.794;2022-12-16T04:55:29;58.97;;;24.43;;
19002;SDS011;9634;51.040;13.794;2022-12-16T05:00:49;48.57;;;20.53;;
19002;SDS011;9634;51.040;13.794;2022-12-16T05:06:09;50.20;;;21.77;;
19002;SDS011;9634;51.040;13.794;2022-12-16T05:11:31;50.77;;;21.43;;
19002;SDS011;9634;51.040;13.794;2022-12-16T05:16:50;51.43;;;22.07;;
19002;SDS011;9634;51.040;13.794;2022-12-16T05:22:11;49.77;;;21.73;;
19002;SDS011;9634;51.040;13.794;2022-12-16T05:27:33;56.23;;;22.83;;
19002;SDS011;9634;51.040;13.794;2022-12-16T05:32:53;53.87;;;21.87;;
19002;SDS011;9634;51.040;13.794;2022-12-16T05:38:12;59.73;;;22.87;;
19002;SDS011;9634;51.040;13.794;2022-12-16T05:43:33;49.13;;;21.13;;
19002;SDS011;9634;51.040;13.794;2022-12-16T05:48:52;50.87;;;22.27;;
19002;SDS011;9634;51.040;13.794;2022-12-16T05:54:12;49.30;;;21.40;;
19002;SDS011;9634;51.040;13.794;2022-12-16T05:59:33;51.20;;;22.13;;
19002;SDS011;9634;51.040;13.794;2022-12-16T06:04:53;52.67;;;21.87;;
19002;SDS011;9634;51.040;13.794;2022-12-16T06:10:12;60.13;;;23.37;;
19002;SDS011;9634;51.040;13.794;2022-12-16T06:15:33;53.67;;;22.40;;
19002;SDS011;9634;51.040;13.794;2022-12-16T06:20:53;60.20;;;25.23;;
19002;SDS011;9634;51.040;13.794;2022-12-16T06:26:12;53.83;;;24.17;;
19002;SDS011;9634;51.040;13.794;2022-12-16T06:31:33;60.43;;;25.40;;
19002;SDS011;9634;51.040;13.794;2022-12-16T06:36:52;58.80;;;24.13;;
19002;SDS011;9634;51.040;13.794;2022-12-16T06:42:12;58.27;;;24.47;;
19002;SDS011;9634;51.040;13.794;2022-12-16T06:47:32;55.93;;;23.67;;
19002;SDS011;9634;51.040;13.794;2022-12-16T06:52:57;48.93;;;21.77;;
19002;SDS011;9634;51.040;13.794;2022-12-16T06:58:17;47.13;;;19.67;;
19002;SDS011;9634;51.040;13.794;2022-12-16T07:03:37;50.70;;;21.50;;
19002;SDS011;9634;51.040;13.794;2022-12-16T07:08:57;48.83;;;21.00;;
19002;SDS011;9634;51.040;13.794;2022-12-16T07:14:17;43.43;;;19.37;;
19002;SDS011;9634;51.040;13.794;2022-12-16T07:19:38;49.47;;;20.13;;
19002;SDS011;9634;51.040;13.794;2022-12-16T07:24:57;48.40;;;21.37;;
19002;SDS011;9634;51.040;13.794;2022-12-16T07:30:17;56.50;;;23.70;;
19002;SDS011;9634;51.040;13.794;2022-12-16T07:35:40;54.80;;;23.87;;
19002;SDS011;9634;51.040;13.794;2022-12-16T07:41:00;63.00;;;27.00;;
19002;SDS011;9634;51.040;13.794;2022-12-16T07:46:20;63.50;;;27.30;;
19002;SDS011;9634;51.040;13.794;2022-12-16T07:51:41;63.10;;;26.13;;
19002;SDS011;9634;51.040;13.794;2022-12-16T07:57:01;65.00;;;28.03;;
19002;SDS011;9634;51.040;13.794;2022-12-16T08:02:20;62.77;;;27.17;;
19002;SDS011;9634;51.040;13.794;2022-12-16T08:07:42;69.60;;;28.37;;
19002;SDS011;9634;51.040;13.794;2022-12-16T08:13:02;65.53;;;26.50;;
19002;SDS011;9634;51.040;13.794;2022-12-16T08:18:22;59.03;;;25.47;;
19002;SDS011;9634;51.040;13.794;2022-12-16T08:23:43;64.40;;;27.97;;
19002;SDS011;9634;51.040;13.794;2022-12-16T08:29:03;66.33;;;28.47;;
19002;SDS011;9634;51.040;13.794;2022-12-16T08:34:23;72.47;;;30.40;;
19002;SDS011;9634;51.040;13.794;2022-12-16T08:39:44;76.73;;;31.60;;
19002;SDS011;9634;51.040;13.794;2022-12-16T08:45:03;77.80;;;31.63;;
19002;SDS011;9634;51.040;13.794;2022-12-16T08:50:23;75.80;;;32.10;;
19002;SDS011;9634;51.040;13.794;2022-12-16T08:55:44;82.17;;;32.57;;
19002;SDS011;9634;51.040;13.794;2022-12-16T09:01:04;76.87;;;32.13;;
19002;SDS011;9634;51.040;13.794;2022-12-16T09:06:24;77.87;;;33.47;;
19002;SDS011;9634;51.040;13.794;2022-12-16T09:11:45;76.07;;;33.70;;
19002;SDS011;9634;51.040;13.794;2022-12-16T09:17:05;73.07;;;31.43;;
19002;SDS011;9634;51.040;13.794;2022-12-16T09:22:24;78.13;;;33.57;;
19002;SDS011;9634;51.040;13.794;2022-12-16T09:27:45;82.57;;;33.43;;
19002;SDS011;9634;51.040;13.794;2022-12-16T09:33:07;76.90;;;33.67;;
19002;SDS011;9634;51.040;13.794;2022-12-16T09:38:26;80.80;;;33.37;;
19002;SDS011;9634;51.040;13.794;2022-12-16T09:43:50;77.73;;;32.77;;
19002;SDS011;9634;51.040;13.794;2022-12-16T09:49:19;86.00;;;35.43;;
19002;SDS011;9634;51.040;13.794;2022-12-16T09:54:49;75.40;;;32.73;;
19002;SDS011;9634;51.040;13.794;2022-12-16T10:00:11;80.00;;;32.77;;
19002;SDS011;9634;51.040;13.794;2022-12-16T10:05:38;69.80;;;30.53;;
19002;SDS011;9634;51.040;13.794;2022-12-16T10:11:06;64.27;;;30.80;;
19002;SDS011;9634;51.040;13.794;2022-12-16T10:16:31;67.10;;;28.77;;
19002;SDS011;9634;51.040;13.794;2022-12-16T10:22:01;55.07;;;26.00;;
19002;SDS011;9634;51.040;13.794;2022-12-16T10:27:36;51.70;;;23.67;;
19002;SDS011;9634;51.040;13.794;2022-12-16T10:33:03;66.93;;;28.73;;
19002;SDS011;9634;51.040;13.794;2022-12-16T10:38:29;62.07;;;26.47;;
19002;SDS011;9634;51.040;13.794;2022-12-16T10:43:54;63.37;;;27.77;;
19002;SDS011;9634;51.040;13.794;2022-12-16T10:49:18;65.07;;;28.43;;
19002;SDS011;9634;51.040;13.794;2022-12-16T10:54:39;66.60;;;27.90;;
19002;SDS011;9634;51.040;13.794;2022-12-16T11:00:09;68.50;;;28.73;;
19002;SDS011;9634;51.040;13.794;2022-12-16T11:05:33;72.73;;;28.73;;
19002;SDS011;9634;51.040;13.794;2022-12-16T11:11:08;68.83;;;28.17;;
19002;SDS011;9634;51.040;13.794;2022-12-16T11:16:31;69.90;;;28.63;;
19002;SDS011;9634;51.040;13.794;2022-12-16T11:21:52;65.40;;;28.90;;
19002;SDS011;9634;51.040;13.794;2022-12-16T11:27:25;65.23;;;27.77;;
19002;SDS011;9634;51.040;13.794;2022-12-16T11:32:46;62.73;;;27.30;;
19002;SDS011;9634;51.040;13.794;2022-12-16T11:38:09;68.80;;;29.23;;
19002;SDS011;9634;51.040;13.794;2022-12-16T11:43:45;69.77;;;28.93;;
19002;SDS011;9634;51.040;13.794;2022-12-16T11:49:12;71.93;;;29.33;;
19002;SDS011;9634;51.040;13.794;2022-12-16T11:54:39;66.73;;;27.53;;
19002;SDS011;9634;51.040;13.794;2022-12-16T12:00:09;66.60;;;28.33;;
19002;SDS011;9634;51.040;13.794;2022-12-16T12:05:33;63.37;;;27.37;;
19002;SDS011;9634;51.040;13.794;2022-12-16T12:11:01;67.93;;;27.63;;
19002;SDS011;9634;51.040;13.794;2022-12-16T12:16:28;69.63;;;28.53;;
19002;SDS011;9634;51.040;13.794;2022-12-16T12:21:55;63.37;;;28.77;;
19002;SDS011;9634;51.040;13.794;2022-12-16T12:27:24;65.33;;;29.67;;
19002;SDS011;9634;51.040;13.794;2022-12-16T12:32:52;67.77;;;28.10;;
19002;SDS011;9634;51.040;13.794;2022-12-16T12:38:26;64.60;;;29.43;;
19002;SDS011;9634;51.040;13.794;2022-12-16T12:43:54;70.03;;;28.47;;
19002;SDS011;9634;51.040;13.794;2022-12-16T12:49:21;67.63;;;27.53;;
19002;SDS011;9634;51.040;13.794;2022-12-16T12:54:47;70.70;;;28.33;;
19002;SDS011;9634;51.040;13.794;2022-12-16T13:00:15;70.33;;;28.93;;
19002;SDS011;9634;51.040;13.794;2022-12-16T13:05:37;62.70;;;24.53;;
19002;SDS011;9634;51.040;13.794;2022-12-16T13:11:10;66.93;;;29.23;;
19002;SDS011;9634;51.040;13.794;2022-12-16T13:22:28;75.03;;;28.00;;
19002;SDS011;9634;51.040;13.794;2022-12-16T13:27:51;75.10;;;29.83;;
19002;SDS011;9634;51.040;13.794;2022-12-16T13:33:21;70.80;;;29.13;;
19002;SDS011;9634;51.040;13.794;2022-12-16T13:38:44;64.50;;;26.67;;
19002;SDS011;9634;51.040;13.794;2022-12-16T13:44:06;72.30;;;30.20;;
19002;SDS011;9634;51.040;13.794;2022-12-16T13:49:40;71.23;;;29.23;;
19002;SDS011;9634;51.040;13.794;2022-12-16T13:55:09;75.73;;;30.07;;
19002;SDS011;9634;51.040;13.794;2022-12-16T14:00:32;73.80;;;31.17;;
19002;SDS011;9634;51.040;13.794;2022-12-16T14:05:58;64.87;;;28.90;;
19002;SDS011;9634;51.040;13.794;2022-12-16T14:11:20;74.67;;;28.63;;
19002;SDS011;9634;51.040;13.794;2022-12-16T14:16:50;77.43;;;30.23;;
19002;SDS011;9634;51.040;13.794;2022-12-16T14:22:19;66.50;;;26.10;;
19002;SDS011;9634;51.040;13.794;2022-12-16T14:27:46;78.83;;;30.17;;
19002;SDS011;9634;51.040;13.794;2022-12-16T14:33:15;67.67;;;30.77;;
19002;SDS011;9634;51.040;13.794;2022-12-16T14:38:45;64.77;;;27.33;;
19002;SDS011;9634;51.040;13.794;2022-12-16T14:44:14;76.53;;;30.07;;
19002;SDS011;9634;51.040;13.794;2022-12-16T14:49:36;79.27;;;31.37;;
19002;SDS011;9634;51.040;13.794;2022-12-16T14:55:13;77.20;;;30.17;;
19002;SDS011;9634;51.040;13.794;2022-12-16T15:00:33;66.17;;;28.73;;
19002;SDS011;9634;51.040;13.794;2022-12-16T15:06:10;71.47;;;28.03;;
19002;SDS011;9634;51.040;13.794;2022-12-16T15:11:38;70.87;;;28.77;;
19002;SDS011;9634;51.040;13.794;2022-12-16T15:17:00;74.67;;;28.47;;
19002;SDS011;9634;51.040;13.794;2022-12-16T15:22:20;75.57;;;31.07;;
19002;SDS011;9634;51.040;13.794;2022-12-16T15:27:42;67.23;;;27.27;;
19002;SDS011;9634;51.040;13.794;2022-12-16T15:33:04;77.77;;;29.27;;
19002;SDS011;9634;51.040;13.794;2022-12-16T15:38:26;75.33;;;31.70;;
19002;SDS011;9634;51.040;13.794;2022-12-16T15:43:49;89.97;;;44.95;;
19002;SDS011;9634;51.040;13.794;2022-12-16T15:49:17;75.10;;;31.13;;
19002;SDS011;9634;51.040;13.794;2022-12-16T15:54:50;72.40;;;30.73;;
19002;SDS011;9634;51.040;13.794;2022-12-16T16:00:19;74.17;;;31.37;;
19002;SDS011;9634;51.040;13.794;2022-12-16T16:05:41;80.63;;;30.83;;
19002;SDS011;9634;51.040;13.794;2022-12-16T16:11:00;74.13;;;30.80;;
19002;SDS011;9634;51.040;13.794;2022-12-16T16:16:22;73.63;;;30.03;;
19002;SDS011;9634;51.040;13.794;2022-12-16T16:21:41;75.07;;;30.80;;
19002;SDS011;9634;51.040;13.794;2022-12-16T16:27:01;71.70;;;30.77;;
19002;SDS011;9634;51.040;13.794;2022-12-16T16:32:23;74.47;;;30.47;;
19002;SDS011;9634;51.040;13.794;2022-12-16T16:37:43;72.80;;;30.47;;
19002;SDS011;9634;51.040;13.794;2022-12-16T16:43:02;74.40;;;30.60;;
19002;SDS011;9634;51.040;13.794;2022-12-16T16:48:23;75.30;;;30.70;;
19002;SDS011;9634;51.040;13.794;2022-12-16T16:53:46;81.90;;;32.27;;
19002;SDS011;9634;51.040;13.794;2022-12-16T16:59:07;81.27;;;31.53;;
19002;SDS011;9634;51.040;13.794;2022-12-16T17:04:29;69.43;;;28.80;;
19002;SDS011;9634;51.040;13.794;2022-12-16T17:09:49;66.80;;;29.90;;
19002;SDS011;9634;51.040;13.794;2022-12-16T17:15:13;66.47;;;29.90;;
19002;SDS011;9634;51.040;13.794;2022-12-16T17:20:36;70.70;;;30.03;;
19002;SDS011;9634;51.040;13.794;2022-12-16T17:25:56;71.03;;;29.67;;
19002;SDS011;9634;51.040;13.794;2022-12-16T17:31:16;69.03;;;29.97;;
19002;SDS011;9634;51.040;13.794;2022-12-16T17:36:36;77.30;;;32.77;;
19002;SDS011;9634;51.040;13.794;2022-12-16T17:41:56;73.83;;;30.00;;
19002;SDS011;9634;51.040;13.794;2022-12-16T17:47:16;72.47;;;30.63;;
19002;SDS011;9634;51.040;13.794;2022-12-16T17:52:37;76.80;;;30.67;;
19002;SDS011;9634;51.040;13.794;2022-12-16T17:57:57;72.13;;;29.53;;
19002;SDS011;9634;51.040;13.794;2022-12-16T18:03:16;77.67;;;31.10;;
19002;SDS011;9634;51.040;13.794;2022-12-16T18:08:37;72.53;;;30.53;;
19002;SDS011;9634;51.040;13.794;2022-12-16T18:13:57;79.47;;;31.13;;
19002;SDS011;9634;51.040;13.794;2022-12-16T18:19:16;73.23;;;29.17;;
19002;SDS011;9634;51.040;13.794;2022-12-16T18:24:37;72.30;;;29.80;;
19002;SDS011;9634;51.040;13.794;2022-12-16T18:29:57;72.50;;;31.20;;
19002;SDS011;9634;51.040;13.794;2022-12-16T18:35:16;64.43;;;29.03;;
19002;SDS011;9634;51.040;13.794;2022-12-16T18:40:39;73.77;;;32.60;;
19002;SDS011;9634;51.040;13.794;2022-12-16T18:45:59;76.90;;;31.63;;
19002;SDS011;9634;51.040;13.794;2022-12-16T18:51:19;69.10;;;29.93;;
19002;SDS011;9634;51.040;13.794;2022-12-16T18:56:40;72.90;;;30.63;;
19002;SDS011;9634;51.040;13.794;2022-12-16T19:01:56;71.07;;;31.47;;
19002;SDS011;9634;51.040;13.794;2022-12-16T19:07:15;76.60;;;31.27;;
19002;SDS011;9634;51.040;13.794;2022-12-16T19:12:36;70.47;;;30.30;;
19002;SDS011;9634;51.040;13.794;2022-12-16T19:17:56;77.20;;;32.33;;
19002;SDS011;9634;51.040;13.794;2022-12-16T19:23:15;76.07;;;32.73;;
19002;SDS011;9634;51.040;13.794;2022-12-16T19:28:36;65.20;;;30.10;;
19002;SDS011;9634;51.040;13.794;2022-12-16T19:33:55;64.00;;;29.10;;
19002;SDS011;9634;51.040;13.794;2022-12-16T19:39:15;71.80;;;31.00;;
19002;SDS011;9634;51.040;13.794;2022-12-16T19:44:36;69.53;;;30.27;;
19002;SDS011;9634;51.040;13.794;2022-12-16T19:49:55;66.07;;;29.13;;
19002;SDS011;9634;51.040;13.794;2022-12-16T19:55:14;75.80;;;29.90;;
19002;SDS011;9634;51.040;13.794;2022-12-16T20:00:36;80.53;;;30.57;;
19002;SDS011;9634;51.040;13.794;2022-12-16T20:05:58;67.87;;;29.77;;
19002;SDS011;9634;51.040;13.794;2022-12-16T20:11:18;69.67;;;31.50;;
19002;SDS011;9634;51.040;13.794;2022-12-16T20:16:40;69.40;;;30.63;;
19002;SDS011;9634;51.040;13.794;2022-12-16T20:22:08;67.87;;;31.10;;
19002;SDS011;9634;51.040;13.794;2022-12-16T20:27:27;76.87;;;31.17;;
19002;SDS011;9634;51.040;13.794;2022-12-16T20:32:48;75.33;;;30.27;;
19002;SDS011;9634;51.040;13.794;2022-12-16T20:38:08;71.27;;;31.73;;
19002;SDS011;9634;51.040;13.794;2022-12-16T20:43:27;69.60;;;31.27;;
19002;SDS011;9634;51.040;13.794;2022-12-16T20:48:48;67.53;;;30.07;;
19002;SDS011;9634;51.040;13.794;2022-12-16T20:54:08;70.00;;;32.03;;
19002;SDS011;9634;51.040;13.794;2022-12-16T20:59:28;69.87;;;30.97;;
19002;SDS011;9634;51.040;13.794;2022-12-16T21:04:49;76.73;;;31.30;;
19002;SDS011;9634;51.040;13.794;2022-12-16T21:10:09;66.93;;;29.60;;
19002;SDS011;9634;51.040;13.794;2022-12-16T21:15:29;73.20;;;30.77;;
19002;SDS011;9634;51.040;13.794;2022-12-16T21:20:51;65.90;;;28.47;;
19002;SDS011;9634;51.040;13.794;2022-12-16T21:26:12;78.73;;;32.53;;
19002;SDS011;9634;51.040;13.794;2022-12-16T21:31:31;68.70;;;31.23;;
19002;SDS011;9634;51.040;13.794;2022-12-16T21:36:52;79.83;;;30.90;;
19002;SDS011;9634;51.040;13.794;2022-12-16T21:42:12;73.93;;;31.13;;
19002;SDS011;9634;51.040;13.794;2022-12-16T21:47:35;67.27;;;29.50;;
19002;SDS011;9634;51.040;13.794;2022-12-16T21:52:55;73.37;;;29.97;;
19002;SDS011;9634;51.040;13.794;2022-12-16T21:58:15;70.40;;;31.73;;
19002;SDS011;9634;51.040;13.794;2022-12-16T22:03:35;69.57;;;31.10;;
19002;SDS011;9634;51.040;13.794;2022-12-16T22:08:56;72.27;;;31.93;;
19002;SDS011;9634;51.040;13.794;2022-12-16T22:14:15;69.57;;;30.73;;
19002;SDS011;9634;51.040;13.794;2022-12-16T22:19:35;69.60;;;29.83;;
19002;SDS011;9634;51.040;13.794;2022-12-16T22:24:56;70.40;;;30.23;;
19002;SDS011;9634;51.040;13.794;2022-12-16T22:30:15;69.03;;;30.63;;
19002;SDS011;9634;51.040;13.794;2022-12-16T22:35:35;66.30;;;29.50;;
19002;SDS011;9634;51.040;13.794;2022-12-16T22:41:01;75.07;;;29.70;;
19002;SDS011;9634;51.040;13.794;2022-12-16T22:46:22;68.03;;;29.97;;
19002;SDS011;9634;51.040;13.794;2022-12-16T22:51:42;68.13;;;29.63;;
19002;SDS011;9634;51.040;13.794;2022-12-16T22:57:03;69.07;;;30.63;;
19002;SDS011;9634;51.040;13.794;2022-12-16T23:02:22;69.83;;;31.23;;
19002;SDS011;9634;51.040;13.794;2022-12-16T23:07:42;62.50;;;27.30;;
19002;SDS011;9634;51.040;13.794;2022-12-16T23:13:03;61.73;;;27.93;;
19002;SDS011;9634;51.040;13.794;2022-12-16T23:18:23;64.83;;;27.77;;
19002;SDS011;9634;51.040;13.794;2022-12-16T23:23:43;58.97;;;27.73;;
19002;SDS011;9634;51.040;13.794;2022-12-16T23:29:04;70.87;;;28.77;;
19002;SDS011;9634;51.040;13.794;2022-12-16T23:34:24;58.27;;;28.47;;
19002;SDS011;9634;51.040;13.794;2022-12-16T23:39:43;65.57;;;28.47;;
19002;SDS011;9634;51.040;13.794;2022-12-16T23:45:07;59.07;;;26.87;;
19002;SDS011;9634;51.040;13.794;2022-12-16T23:50:27;66.83;;;27.27;;
19002;SDS011;9634;51.040;13.794;2022-12-16T23:55:47;59.80;;;27.23;;
